sensor_id;sensor_type;location;lat;lon;timestamp;pressure;altitude;pressure_sealevel;temperature
16759;BMP280;8497;51.346;12.396;2024-03-06T00:02:15;100476.84;;;7.63
16759;BMP280;8497;51.346;12.396;2024-03-06T00:04:44;100484.72;;;7.69
16759;BMP280;8497;51.346;12.396;2024-03-06T00:07:35;100483.84;;;7.69
16759;BMP280;8497;51.346;12.396;2024-03-06T00:10:05;100484.19;;;7.74
16759;BMP280;8497;51.346;12.396;2024-03-06T00:12:34;100481.59;;;7.73
16759;BMP280;8497;51.346;12.396;2024-03-06T00:15:03;100486.69;;;7.74
16759;BMP280;8497;51.346;12.396;2024-03-06T00:17:33;100488.31;;;7.74
16759;BMP280;8497;51.346;12.396;2024-03-06T00:20:04;100484.28;;;7.76
16759;BMP280;8497;51.346;12.396;2024-03-06T00:22:34;100485.97;;;7.77
16759;BMP280;8497;51.346;12.396;2024-03-06T00:25:04;100486.88;;;7.77
16759;BMP280;8497;51.346;12.396;2024-03-06T00:27:36;100485.97;;;7.77
16759;BMP280;8497;51.346;12.396;2024-03-06T00:30:06;100493.50;;;7.77
16759;BMP280;8497;51.346;12.396;2024-03-06T00:32:36;100494.75;;;7.69
16759;BMP280;8497;51.346;12.396;2024-03-06T00:35:06;100495.38;;;7.65
16759;BMP280;8497;51.346;12.396;2024-03-06T00:37:34;100508.88;;;7.53
16759;BMP280;8497;51.346;12.396;2024-03-06T00:40:04;100517.19;;;7.37
16759;BMP280;8497;51.346;12.396;2024-03-06T00:42:34;100518.84;;;7.23
16759;BMP280;8497;51.346;12.396;2024-03-06T00:45:07;100521.44;;;7.10
16759;BMP280;8497;51.346;12.396;2024-03-06T00:47:43;100522.78;;;6.90
16759;BMP280;8497;51.346;12.396;2024-03-06T00:50:19;100525.44;;;6.79
16759;BMP280;8497;51.346;12.396;2024-03-06T00:52:53;100520.31;;;6.63
16759;BMP280;8497;51.346;12.396;2024-03-06T00:55:31;100524.78;;;6.54
16759;BMP280;8497;51.346;12.396;2024-03-06T00:58:17;100532.69;;;6.47
16759;BMP280;8497;51.346;12.396;2024-03-06T01:00:48;100547.91;;;6.50
16759;BMP280;8497;51.346;12.396;2024-03-06T01:03:18;100539.25;;;6.45
16759;BMP280;8497;51.346;12.396;2024-03-06T01:05:53;100549.09;;;6.42
16759;BMP280;8497;51.346;12.396;2024-03-06T01:08:38;100544.66;;;6.38
16759;BMP280;8497;51.346;12.396;2024-03-06T01:11:11;100554.47;;;6.36
16759;BMP280;8497;51.346;12.396;2024-03-06T01:13:42;100555.94;;;6.32
16759;BMP280;8497;51.346;12.396;2024-03-06T01:16:10;100547.97;;;6.25
16759;BMP280;8497;51.346;12.396;2024-03-06T01:18:59;100552.59;;;6.19
16759;BMP280;8497;51.346;12.396;2024-03-06T01:21:49;100555.69;;;6.15
16759;BMP280;8497;51.346;12.396;2024-03-06T01:24:18;100554.84;;;6.14
16759;BMP280;8497;51.346;12.396;2024-03-06T01:27:04;100558.69;;;6.22
16759;BMP280;8497;51.346;12.396;2024-03-06T01:29:34;100555.97;;;6.19
16759;BMP280;8497;51.346;12.396;2024-03-06T01:32:09;100555.69;;;6.15
16759;BMP280;8497;51.346;12.396;2024-03-06T01:35:10;100562.06;;;6.10
16759;BMP280;8497;51.346;12.396;2024-03-06T01:37:55;100559.84;;;6.01
16759;BMP280;8497;51.346;12.396;2024-03-06T01:40:43;100566.50;;;6.01
16759;BMP280;8497;51.346;12.396;2024-03-06T01:43:27;100573.91;;;5.99
16759;BMP280;8497;51.346;12.396;2024-03-06T01:45:59;100577.84;;;5.96
16759;BMP280;8497;51.346;12.396;2024-03-06T01:48:35;100579.19;;;5.91
16759;BMP280;8497;51.346;12.396;2024-03-06T01:51:09;100581.44;;;5.87
16759;BMP280;8497;51.346;12.396;2024-03-06T01:53:41;100585.72;;;5.89
16759;BMP280;8497;51.346;12.396;2024-03-06T01:56:16;100577.47;;;5.90
16759;BMP280;8497;51.346;12.396;2024-03-06T01:58:50;100577.47;;;5.90
16759;BMP280;8497;51.346;12.396;2024-03-06T02:01:22;100569.78;;;5.87
16759;BMP280;8497;51.346;12.396;2024-03-06T02:04:02;100573.72;;;5.84
16759;BMP280;8497;51.346;12.396;2024-03-06T02:06:42;100572.28;;;5.87
16759;BMP280;8497;51.346;12.396;2024-03-06T02:09:31;100584.28;;;5.92
16759;BMP280;8497;51.346;12.396;2024-03-06T02:12:15;100581.13;;;5.95
16759;BMP280;8497;51.346;12.396;2024-03-06T02:14:58;100583.53;;;5.93
16759;BMP280;8497;51.346;12.396;2024-03-06T02:17:27;100578.13;;;5.88
16759;BMP280;8497;51.346;12.396;2024-03-06T02:19:58;100586.69;;;5.78
16759;BMP280;8497;51.346;12.396;2024-03-06T02:22:48;100583.56;;;5.69
16759;BMP280;8497;51.346;12.396;2024-03-06T02:25:17;100592.63;;;5.67
16759;BMP280;8497;51.346;12.396;2024-03-06T02:27:49;100590.88;;;5.66
16759;BMP280;8497;51.346;12.396;2024-03-06T02:30:20;100596.06;;;5.69
16759;BMP280;8497;51.346;12.396;2024-03-06T02:32:49;100593.00;;;5.73
16759;BMP280;8497;51.346;12.396;2024-03-06T02:35:17;100592.34;;;5.76
16759;BMP280;8497;51.346;12.396;2024-03-06T02:37:48;100592.34;;;5.76
16759;BMP280;8497;51.346;12.396;2024-03-06T02:40:17;100593.00;;;5.73
16759;BMP280;8497;51.346;12.396;2024-03-06T02:42:45;100603.56;;;5.69
16759;BMP280;8497;51.346;12.396;2024-03-06T02:45:15;100600.78;;;5.65
16759;BMP280;8497;51.346;12.396;2024-03-06T02:47:45;100607.22;;;5.61
16759;BMP280;8497;51.346;12.396;2024-03-06T02:50:14;100606.38;;;5.61
16759;BMP280;8497;51.346;12.396;2024-03-06T02:52:42;100612.44;;;5.64
16759;BMP280;8497;51.346;12.396;2024-03-06T02:55:13;100615.31;;;5.70
16759;BMP280;8497;51.346;12.396;2024-03-06T02:57:41;100621.19;;;5.71
16759;BMP280;8497;51.346;12.396;2024-03-06T03:00:11;100609.16;;;5.65
16759;BMP280;8497;51.346;12.396;2024-03-06T03:02:42;100610.88;;;5.66
16759;BMP280;8497;51.346;12.396;2024-03-06T03:05:11;100614.38;;;5.68
16759;BMP280;8497;51.346;12.396;2024-03-06T03:07:39;100618.47;;;5.68
16759;BMP280;8497;51.346;12.396;2024-03-06T03:10:14;100625.50;;;5.60
16759;BMP280;8497;51.346;12.396;2024-03-06T03:12:43;100625.22;;;5.56
16759;BMP280;8497;51.346;12.396;2024-03-06T03:15:12;100628.56;;;5.56
16759;BMP280;8497;51.346;12.396;2024-03-06T03:17:40;100628.38;;;5.53
16759;BMP280;8497;51.346;12.396;2024-03-06T03:20:11;100629.22;;;5.54
16759;BMP280;8497;51.346;12.396;2024-03-06T03:22:40;100635.78;;;5.52
16759;BMP280;8497;51.346;12.396;2024-03-06T03:25:11;100634.63;;;5.47
16759;BMP280;8497;51.346;12.396;2024-03-06T03:27:41;100633.25;;;5.39
16759;BMP280;8497;51.346;12.396;2024-03-06T03:30:12;100633.69;;;5.34
16759;BMP280;8497;51.346;12.396;2024-03-06T03:32:45;100623.09;;;5.25
16759;BMP280;8497;51.346;12.396;2024-03-06T03:35:18;100630.59;;;5.25
16759;BMP280;8497;51.346;12.396;2024-03-06T03:38:20;100639.50;;;5.33
16759;BMP280;8497;51.346;12.396;2024-03-06T03:41:02;100635.66;;;5.38
16759;BMP280;8497;51.346;12.396;2024-03-06T03:43:33;100649.50;;;5.45
16759;BMP280;8497;51.346;12.396;2024-03-06T03:46:02;100642.56;;;5.42
16759;BMP280;8497;51.346;12.396;2024-03-06T03:48:33;100645.66;;;5.38
16759;BMP280;8497;51.346;12.396;2024-03-06T03:51:05;100651.41;;;5.37
16759;BMP280;8497;51.346;12.396;2024-03-06T03:53:40;100649.81;;;5.26
16759;BMP280;8497;51.346;12.396;2024-03-06T03:56:23;100649.41;;;5.20
16759;BMP280;8497;51.346;12.396;2024-03-06T03:58:53;100651.91;;;5.20
16759;BMP280;8497;51.346;12.396;2024-03-06T04:01:47;100658.75;;;5.22
16759;BMP280;8497;51.346;12.396;2024-03-06T04:04:26;100648.88;;;5.24
16759;BMP280;8497;51.346;12.396;2024-03-06T04:07:01;100660.56;;;5.25
16759;BMP280;8497;51.346;12.396;2024-03-06T04:09:40;100669.63;;;5.23
16759;BMP280;8497;51.346;12.396;2024-03-06T04:12:17;100657.88;;;5.22
16759;BMP280;8497;51.346;12.396;2024-03-06T04:14:48;100658.56;;;5.19
16759;BMP280;8497;51.346;12.396;2024-03-06T04:17:22;100658.34;;;5.16
16759;BMP280;8497;51.346;12.396;2024-03-06T04:20:04;100662.38;;;5.14
16759;BMP280;8497;51.346;12.396;2024-03-06T04:22:37;100670.09;;;5.17
16759;BMP280;8497;51.346;12.396;2024-03-06T04:25:11;100673.34;;;5.16
16759;BMP280;8497;51.346;12.396;2024-03-06T04:27:43;100667.81;;;5.09
16759;BMP280;8497;51.346;12.396;2024-03-06T04:30:14;100680.69;;;5.02
16759;BMP280;8497;51.346;12.396;2024-03-06T04:33:03;100677.97;;;4.99
16759;BMP280;8497;51.346;12.396;2024-03-06T04:35:42;100687.19;;;5.00
16759;BMP280;8497;51.346;12.396;2024-03-06T04:38:13;100692.06;;;4.98
16759;BMP280;8497;51.346;12.396;2024-03-06T04:40:44;100689.09;;;4.91
16759;BMP280;8497;51.346;12.396;2024-03-06T04:43:23;100685.47;;;4.88
16759;BMP280;8497;51.346;12.396;2024-03-06T04:46:02;100676.41;;;4.77
16759;BMP280;8497;51.346;12.396;2024-03-06T04:48:37;100684.88;;;4.67
16759;BMP280;8497;51.346;12.396;2024-03-06T04:51:07;100683.50;;;4.59
16759;BMP280;8497;51.346;12.396;2024-03-06T04:53:38;100691.41;;;4.54
16759;BMP280;8497;51.346;12.396;2024-03-06T04:56:12;100697.63;;;4.48
16759;BMP280;8497;51.346;12.396;2024-03-06T04:58:45;100703.50;;;4.48
16759;BMP280;8497;51.346;12.396;2024-03-06T05:01:16;100701.53;;;4.44
16759;BMP280;8497;51.346;12.396;2024-03-06T05:04:08;100694.78;;;4.43
16759;BMP280;8497;51.346;12.396;2024-03-06T05:06:54;100698.06;;;4.42
16759;BMP280;8497;51.346;12.396;2024-03-06T05:09:40;100696.00;;;4.37
16759;BMP280;8497;51.346;12.396;2024-03-06T05:12:27;100705.00;;;4.35
16759;BMP280;8497;51.346;12.396;2024-03-06T05:15:15;100699.16;;;4.34
16759;BMP280;8497;51.346;12.396;2024-03-06T05:18:02;100705.97;;;4.37
16759;BMP280;8497;51.346;12.396;2024-03-06T05:20:48;100706.75;;;4.36
16759;BMP280;8497;51.346;12.396;2024-03-06T05:23:34;100706.53;;;4.33
16759;BMP280;8497;51.346;12.396;2024-03-06T05:26:20;100709.56;;;4.29
16759;BMP280;8497;51.346;12.396;2024-03-06T05:29:06;100714.22;;;4.24
16759;BMP280;8497;51.346;12.396;2024-03-06T05:31:54;100723.66;;;4.17
16759;BMP280;8497;51.346;12.396;2024-03-06T05:34:42;100723.22;;;4.11
16759;BMP280;8497;51.346;12.396;2024-03-06T05:37:28;100719.00;;;4.10
16759;BMP280;8497;51.346;12.396;2024-03-06T05:40:14;100720.72;;;4.11
16759;BMP280;8497;51.346;12.396;2024-03-06T05:43:00;100726.47;;;4.10
16759;BMP280;8497;51.346;12.396;2024-03-06T05:45:46;100728.00;;;4.08
16759;BMP280;8497;51.346;12.396;2024-03-06T05:48:36;100740.38;;;4.07
16759;BMP280;8497;51.346;12.396;2024-03-06T05:51:26;100742.09;;;4.07
16759;BMP280;8497;51.346;12.396;2024-03-06T05:54:12;100746.66;;;4.13
16759;BMP280;8497;51.346;12.396;2024-03-06T05:57:00;100743.81;;;4.20
16759;BMP280;8497;51.346;12.396;2024-03-06T05:59:48;100752.31;;;4.22
16759;BMP280;8497;51.346;12.396;2024-03-06T06:02:20;100754.81;;;4.22
16759;BMP280;8497;51.346;12.396;2024-03-06T06:05:08;100754.03;;;4.23
16759;BMP280;8497;51.346;12.396;2024-03-06T06:07:52;100755.78;;;4.24
16759;BMP280;8497;51.346;12.396;2024-03-06T06:10:38;100763.25;;;4.24
16759;BMP280;8497;51.346;12.396;2024-03-06T06:13:13;100763.03;;;4.21
16759;BMP280;8497;51.346;12.396;2024-03-06T06:16:12;100767.47;;;4.25
16759;BMP280;8497;51.346;12.396;2024-03-06T06:19:19;100767.06;;;4.30
16759;BMP280;8497;51.346;12.396;2024-03-06T06:21:46;100769.31;;;4.27
16759;BMP280;8497;51.346;12.396;2024-03-06T06:24:26;100786.28;;;4.31
16759;BMP280;8497;51.346;12.396;2024-03-06T06:27:03;100788.31;;;4.37
16759;BMP280;8497;51.346;12.396;2024-03-06T06:29:53;100784.84;;;4.46
16759;BMP280;8497;51.346;12.396;2024-03-06T06:32:35;100779.97;;;4.48
16759;BMP280;8497;51.346;12.396;2024-03-06T06:35:04;100789.19;;;4.49
16759;BMP280;8497;51.346;12.396;2024-03-06T06:37:38;100789.44;;;4.52
16759;BMP280;8497;51.346;12.396;2024-03-06T06:40:40;100793.84;;;4.55
16759;BMP280;8497;51.346;12.396;2024-03-06T06:43:19;100804.84;;;4.57
16759;BMP280;8497;51.346;12.396;2024-03-06T06:45:57;100799.84;;;4.57
16759;BMP280;8497;51.346;12.396;2024-03-06T06:48:29;100810.47;;;4.66
16759;BMP280;8497;51.346;12.396;2024-03-06T06:51:10;100804.53;;;4.76
16759;BMP280;8497;51.346;12.396;2024-03-06T06:53:47;100808.84;;;4.78
16759;BMP280;8497;51.346;12.396;2024-03-06T06:56:19;100809.81;;;4.80
16759;BMP280;8497;51.346;12.396;2024-03-06T06:59:07;100819.47;;;4.87
16759;BMP280;8497;51.346;12.396;2024-03-06T07:01:52;100821.31;;;5.01
16759;BMP280;8497;51.346;12.396;2024-03-06T07:04:34;100819.69;;;5.13
16759;BMP280;8497;51.346;12.396;2024-03-06T07:07:11;100831.16;;;5.22
16759;BMP280;8497;51.346;12.396;2024-03-06T07:09:43;100833.44;;;5.19
16759;BMP280;8497;51.346;12.396;2024-03-06T07:12:11;100831.91;;;5.21
16759;BMP280;8497;51.346;12.396;2024-03-06T07:14:40;100832.03;;;5.23
16759;BMP280;8497;51.346;12.396;2024-03-06T07:17:09;100840.91;;;5.31
16759;BMP280;8497;51.346;12.396;2024-03-06T07:19:37;100840.44;;;5.47
16759;BMP280;8497;51.346;12.396;2024-03-06T07:22:08;100839.84;;;5.63
16759;BMP280;8497;51.346;12.396;2024-03-06T07:24:43;100839.63;;;5.71
16759;BMP280;8497;51.346;12.396;2024-03-06T07:27:21;100845.72;;;5.75
16759;BMP280;8497;51.346;12.396;2024-03-06T07:30:22;100844.59;;;5.83
16759;BMP280;8497;51.346;12.396;2024-03-06T07:33:02;100842.25;;;5.97
16759;BMP280;8497;51.346;12.396;2024-03-06T07:36:11;100836.78;;;6.02
16759;BMP280;8497;51.346;12.396;2024-03-06T07:39:12;100847.09;;;6.07
16759;BMP280;8497;51.346;12.396;2024-03-06T07:42:08;100854.94;;;6.11
16759;BMP280;8497;51.346;12.396;2024-03-06T07:44:41;100856.44;;;6.09
16759;BMP280;8497;51.346;12.396;2024-03-06T07:47:17;100859.72;;;6.08
16759;BMP280;8497;51.346;12.396;2024-03-06T07:50:05;100872.66;;;6.14
16759;BMP280;8497;51.346;12.396;2024-03-06T07:52:49;100868.00;;;6.07
16759;BMP280;8497;51.346;12.396;2024-03-06T07:55:37;100880.19;;;6.03
16759;BMP280;8497;51.346;12.396;2024-03-06T07:58:22;100883.66;;;6.05
16759;BMP280;8497;51.346;12.396;2024-03-06T08:02:42;100893.88;;;6.08
16759;BMP280;8497;51.346;12.396;2024-03-06T08:04:34;100884.06;;;6.11
16759;BMP280;8497;51.346;12.396;2024-03-06T08:07:11;100892.09;;;6.18
16759;BMP280;8497;51.346;12.396;2024-03-06T08:09:42;100884.91;;;6.36
16759;BMP280;8497;51.346;12.396;2024-03-06T08:12:16;100880.53;;;6.57
16759;BMP280;8497;51.346;12.396;2024-03-06T08:15:30;100892.25;;;6.82
16759;BMP280;8497;51.346;12.396;2024-03-06T08:18:05;100891.78;;;7.01
16759;BMP280;8497;51.346;12.396;2024-03-06T08:20:58;100899.09;;;7.24
16759;BMP280;8497;51.346;12.396;2024-03-06T08:23:37;100912.47;;;7.37
16759;BMP280;8497;51.346;12.396;2024-03-06T08:26:24;100912.38;;;7.35
16759;BMP280;8497;51.346;12.396;2024-03-06T08:29:35;100917.97;;;7.19
16759;BMP280;8497;51.346;12.396;2024-03-06T08:32:45;100916.47;;;7.21
16759;BMP280;8497;51.346;12.396;2024-03-06T08:35:29;100924.84;;;7.21
16759;BMP280;8497;51.346;12.396;2024-03-06T08:38:15;100930.22;;;7.40
16759;BMP280;8497;51.346;12.396;2024-03-06T08:40:46;100930.69;;;7.60
16759;BMP280;8497;51.346;12.396;2024-03-06T08:43:17;100924.81;;;7.60
16759;BMP280;8497;51.346;12.396;2024-03-06T08:45:56;100938.41;;;7.76
16759;BMP280;8497;51.346;12.396;2024-03-06T08:48:43;100929.16;;;7.89
16759;BMP280;8497;51.346;12.396;2024-03-06T08:51:21;100925.06;;;8.04
16759;BMP280;8497;51.346;12.396;2024-03-06T08:54:00;100929.22;;;8.17
16759;BMP280;8497;51.346;12.396;2024-03-06T08:57:20;100934.94;;;8.01
16759;BMP280;8497;51.346;12.396;2024-03-06T09:00:27;100931.22;;;7.82
16759;BMP280;8497;51.346;12.396;2024-03-06T09:03:06;100935.00;;;7.75
16759;BMP280;8497;51.346;12.396;2024-03-06T09:05:59;100928.22;;;7.87
16759;BMP280;8497;51.346;12.396;2024-03-06T09:08:30;100937.06;;;7.95
16759;BMP280;8497;51.346;12.396;2024-03-06T09:10:58;100934.72;;;8.11
16759;BMP280;8497;51.346;12.396;2024-03-06T09:13:27;100932.09;;;8.10
16759;BMP280;8497;51.346;12.396;2024-03-06T09:15:56;100929.59;;;8.22
16759;BMP280;8497;51.346;12.396;2024-03-06T09:18:30;100941.53;;;8.26
16759;BMP280;8497;51.346;12.396;2024-03-06T09:21:05;100932.66;;;8.46
16759;BMP280;8497;51.346;12.396;2024-03-06T09:23:34;100936.22;;;8.64
16759;BMP280;8497;51.346;12.396;2024-03-06T09:26:04;100945.88;;;8.85
16759;BMP280;8497;51.346;12.396;2024-03-06T09:28:33;100941.44;;;9.10
16759;BMP280;8497;51.346;12.396;2024-03-06T09:31:04;100942.19;;;9.37
16759;BMP280;8497;51.346;12.396;2024-03-06T09:33:32;100947.59;;;9.59
16759;BMP280;8497;51.346;12.396;2024-03-06T09:36:05;100938.09;;;9.69
16759;BMP280;8497;51.346;12.396;2024-03-06T09:38:33;100933.81;;;9.83
16759;BMP280;8497;51.346;12.396;2024-03-06T09:41:10;100940.06;;;10.05
16759;BMP280;8497;51.346;12.396;2024-03-06T09:43:44;100930.03;;;10.21
16759;BMP280;8497;51.346;12.396;2024-03-06T09:46:29;100936.00;;;10.07
16759;BMP280;8497;51.346;12.396;2024-03-06T09:49:28;100937.91;;;9.81
16759;BMP280;8497;51.346;12.396;2024-03-06T09:52:00;100942.13;;;9.82
16759;BMP280;8497;51.346;12.396;2024-03-06T09:54:55;100929.47;;;9.80
16759;BMP280;8497;51.346;12.396;2024-03-06T09:57:43;100945.38;;;9.79
16759;BMP280;8497;51.346;12.396;2024-03-06T10:00:22;100938.94;;;9.84
16759;BMP280;8497;51.346;12.396;2024-03-06T10:03:24;100946.09;;;9.93
16759;BMP280;8497;51.346;12.396;2024-03-06T10:06:55;100947.47;;;10.02
16759;BMP280;8497;51.346;12.396;2024-03-06T10:10:10;100942.84;;;10.09
16759;BMP280;8497;51.346;12.396;2024-03-06T10:12:44;100941.91;;;10.07
16759;BMP280;8497;51.346;12.396;2024-03-06T10:15:37;100946.41;;;10.29
16759;BMP280;8497;51.346;12.396;2024-03-06T10:18:15;100949.47;;;10.55
16759;BMP280;8497;51.346;12.396;2024-03-06T10:21:16;100934.56;;;10.59
16759;BMP280;8497;51.346;12.396;2024-03-06T10:24:10;100940.81;;;10.50
16759;BMP280;8497;51.346;12.396;2024-03-06T10:26:48;100929.53;;;10.44
16759;BMP280;8497;51.346;12.396;2024-03-06T10:29:22;100941.84;;;10.38
16759;BMP280;8497;51.346;12.396;2024-03-06T10:32:25;100939.16;;;10.35
16759;BMP280;8497;51.346;12.396;2024-03-06T10:35:24;100947.91;;;10.41
16759;BMP280;8497;51.346;12.396;2024-03-06T10:39:09;100939.22;;;10.52
16759;BMP280;8497;51.346;12.396;2024-03-06T10:41:28;100942.84;;;10.57
16759;BMP280;8497;51.346;12.396;2024-03-06T10:44:52;100945.31;;;10.73
16759;BMP280;8497;51.346;12.396;2024-03-06T10:47:48;100943.19;;;10.80
16759;BMP280;8497;51.346;12.396;2024-03-06T10:50:49;100950.69;;;10.96
16759;BMP280;8497;51.346;12.396;2024-03-06T10:53:56;100943.66;;;11.06
16759;BMP280;8497;51.346;12.396;2024-03-06T10:56:43;100938.47;;;11.03
16759;BMP280;8497;51.346;12.396;2024-03-06T10:59:25;100943.81;;;11.09
16759;BMP280;8497;51.346;12.396;2024-03-06T11:02:22;100940.06;;;11.01
16759;BMP280;8497;51.346;12.396;2024-03-06T11:05:07;100945.84;;;11.34
16759;BMP280;8497;51.346;12.396;2024-03-06T11:08:21;100949.34;;;11.70
16759;BMP280;8497;51.346;12.396;2024-03-06T11:11:47;100942.22;;;11.81
16759;BMP280;8497;51.346;12.396;2024-03-06T11:15:16;100949.38;;;11.89
16759;BMP280;8497;51.346;12.396;2024-03-06T11:17:46;100953.72;;;11.74
16759;BMP280;8497;51.346;12.396;2024-03-06T11:20:24;100951.03;;;11.37
16759;BMP280;8497;51.346;12.396;2024-03-06T11:23:07;100955.66;;;11.10
16759;BMP280;8497;51.346;12.396;2024-03-06T11:26:07;100949.22;;;10.99
16759;BMP280;8497;51.346;12.396;2024-03-06T11:28:38;100944.41;;;11.04
16759;BMP280;8497;51.346;12.396;2024-03-06T11:32:04;100958.31;;;10.80
16759;BMP280;8497;51.346;12.396;2024-03-06T11:35:06;100958.72;;;10.72
16759;BMP280;8497;51.346;12.396;2024-03-06T11:37:46;100950.88;;;10.50
16759;BMP280;8497;51.346;12.396;2024-03-06T11:41:04;100948.13;;;10.95
16759;BMP280;8497;51.346;12.396;2024-03-06T11:44:06;100950.75;;;11.13
16759;BMP280;8497;51.346;12.396;2024-03-06T11:47:06;100948.88;;;11.44
16759;BMP280;8497;51.346;12.396;2024-03-06T11:49:38;100954.19;;;11.48
16759;BMP280;8497;51.346;12.396;2024-03-06T11:52:24;100951.19;;;11.74
16759;BMP280;8497;51.346;12.396;2024-03-06T11:54:56;100950.25;;;12.08
16759;BMP280;8497;51.346;12.396;2024-03-06T11:57:24;100946.41;;;12.35
16759;BMP280;8497;51.346;12.396;2024-03-06T11:59:53;100940.88;;;12.43
16759;BMP280;8497;51.346;12.396;2024-03-06T12:02:23;100936.09;;;12.31
16759;BMP280;8497;51.346;12.396;2024-03-06T12:04:51;100951.22;;;11.93
16759;BMP280;8497;51.346;12.396;2024-03-06T12:07:22;100945.41;;;11.42
16759;BMP280;8497;51.346;12.396;2024-03-06T12:09:52;100952.41;;;11.30
16759;BMP280;8497;51.346;12.396;2024-03-06T12:12:21;100949.16;;;11.15
16759;BMP280;8497;51.346;12.396;2024-03-06T12:14:58;100951.66;;;11.48
16759;BMP280;8497;51.346;12.396;2024-03-06T12:17:27;100944.41;;;11.56
16759;BMP280;8497;51.346;12.396;2024-03-06T12:20:00;100943.53;;;11.73
16759;BMP280;8497;51.346;12.396;2024-03-06T12:22:57;100937.38;;;11.85
16759;BMP280;8497;51.346;12.396;2024-03-06T12:25:42;100931.22;;;11.97
16759;BMP280;8497;51.346;12.396;2024-03-06T12:29:05;100936.31;;;12.16
16759;BMP280;8497;51.346;12.396;2024-03-06T12:31:42;100928.97;;;12.22
16759;BMP280;8497;51.346;12.396;2024-03-06T12:34:14;100926.31;;;12.38
16759;BMP280;8497;51.346;12.396;2024-03-06T12:36:44;100929.97;;;12.44
16759;BMP280;8497;51.346;12.396;2024-03-06T12:39:17;100924.50;;;12.54
16759;BMP280;8497;51.346;12.396;2024-03-06T12:41:50;100933.25;;;12.81
16759;BMP280;8497;51.346;12.396;2024-03-06T12:44:20;100916.41;;;12.81
16759;BMP280;8497;51.346;12.396;2024-03-06T12:46:51;100924.00;;;12.42
16759;BMP280;8497;51.346;12.396;2024-03-06T12:49:25;100936.03;;;11.74
16759;BMP280;8497;51.346;12.396;2024-03-06T12:51:57;100933.38;;;11.19
16759;BMP280;8497;51.346;12.396;2024-03-06T12:54:56;100930.34;;;11.26
16759;BMP280;8497;51.346;12.396;2024-03-06T12:57:26;100935.44;;;11.61
16759;BMP280;8497;51.346;12.396;2024-03-06T13:02:01;100923.06;;;12.03
16759;BMP280;8497;51.346;12.396;2024-03-06T13:03:09;100926.13;;;12.73
16759;BMP280;8497;51.346;12.396;2024-03-06T13:06:06;100939.03;;;12.78
16759;BMP280;8497;51.346;12.396;2024-03-06T13:08:34;100932.28;;;12.59
16759;BMP280;8497;51.346;12.396;2024-03-06T13:11:04;100946.06;;;11.90
16759;BMP280;8497;51.346;12.396;2024-03-06T13:13:34;100945.41;;;11.25
16759;BMP280;8497;51.346;12.396;2024-03-06T13:16:03;100946.75;;;11.01
16759;BMP280;8497;51.346;12.396;2024-03-06T13:18:34;100943.09;;;10.95
16759;BMP280;8497;51.346;12.396;2024-03-06T13:21:07;100945.41;;;11.07
16759;BMP280;8497;51.346;12.396;2024-03-06T13:23:38;100948.31;;;11.32
16759;BMP280;8497;51.346;12.396;2024-03-06T13:26:12;100949.19;;;11.50
16759;BMP280;8497;51.346;12.396;2024-03-06T13:28:41;100945.47;;;11.26
16759;BMP280;8497;51.346;12.396;2024-03-06T13:31:17;100940.28;;;11.23
16759;BMP280;8497;51.346;12.396;2024-03-06T13:34:00;100939.34;;;11.21
16759;BMP280;8497;51.346;12.396;2024-03-06T13:36:33;100930.41;;;11.28
16759;BMP280;8497;51.346;12.396;2024-03-06T13:39:06;100936.56;;;11.50
16759;BMP280;8497;51.346;12.396;2024-03-06T13:45:02;100939.34;;;11.39
16759;BMP280;8497;51.346;12.396;2024-03-06T13:50:53;100943.81;;;11.27
16759;BMP280;8497;51.346;12.396;2024-03-06T13:51:23;100950.69;;;11.29
16759;BMP280;8497;51.346;12.396;2024-03-06T13:54:09;100948.31;;;11.32
16759;BMP280;8497;51.346;12.396;2024-03-06T13:56:59;100951.41;;;11.44
16759;BMP280;8497;51.346;12.396;2024-03-06T13:59:36;100944.56;;;11.41
16759;BMP280;8497;51.346;12.396;2024-03-06T14:02:08;100944.41;;;11.39
16759;BMP280;8497;51.346;12.396;2024-03-06T14:04:39;100944.69;;;11.44
16759;BMP280;8497;51.346;12.396;2024-03-06T14:07:13;100946.22;;;11.58
16759;BMP280;8497;51.346;12.396;2024-03-06T14:09:56;100950.69;;;11.64
16759;BMP280;8497;51.346;12.396;2024-03-06T14:12:30;100954.94;;;11.65
16759;BMP280;8497;51.346;12.396;2024-03-06T14:15:19;100945.06;;;11.69
16759;BMP280;8497;51.346;12.396;2024-03-06T14:18:03;100948.16;;;11.64
16759;BMP280;8497;51.346;12.396;2024-03-06T14:20:50;100947.38;;;11.65
16759;BMP280;8497;51.346;12.396;2024-03-06T14:23:21;100950.81;;;11.67
16759;BMP280;8497;51.346;12.396;2024-03-06T14:26:06;100951.34;;;11.60
16759;BMP280;8497;51.346;12.396;2024-03-06T14:28:38;100948.31;;;11.49
16759;BMP280;8497;51.346;12.396;2024-03-06T14:31:09;100952.19;;;11.43
16759;BMP280;8497;51.346;12.396;2024-03-06T14:33:40;100954.13;;;11.47
16759;BMP280;8497;51.346;12.396;2024-03-06T14:36:09;100946.16;;;11.57
16759;BMP280;8497;51.346;12.396;2024-03-06T14:38:40;100939.16;;;11.69
16759;BMP280;8497;51.346;12.396;2024-03-06T14:41:10;100947.44;;;11.66
16759;BMP280;8497;51.346;12.396;2024-03-06T14:43:45;100948.03;;;11.61
16759;BMP280;8497;51.346;12.396;2024-03-06T14:46:18;100948.06;;;11.45
16759;BMP280;8497;51.346;12.396;2024-03-06T14:48:47;100948.31;;;11.32
16759;BMP280;8497;51.346;12.396;2024-03-06T14:51:16;100955.72;;;11.29
16759;BMP280;8497;51.346;12.396;2024-03-06T14:53:44;100954.28;;;11.34
16759;BMP280;8497;51.346;12.396;2024-03-06T14:56:13;100951.31;;;11.25
16759;BMP280;8497;51.346;12.396;2024-03-06T14:58:44;100955.78;;;11.13
16759;BMP280;8497;51.346;12.396;2024-03-06T15:01:12;100941.91;;;10.88
16759;BMP280;8497;51.346;12.396;2024-03-06T15:03:41;100943.44;;;10.69
16759;BMP280;8497;51.346;12.396;2024-03-06T15:06:13;100948.88;;;10.60
16759;BMP280;8497;51.346;12.396;2024-03-06T15:08:46;100963.63;;;10.37
16759;BMP280;8497;51.346;12.396;2024-03-06T15:11:20;100955.28;;;10.38
16759;BMP280;8497;51.346;12.396;2024-03-06T15:13:52;100958.88;;;10.59
16759;BMP280;8497;51.346;12.396;2024-03-06T15:16:24;100957.78;;;10.70
16759;BMP280;8497;51.346;12.396;2024-03-06T15:18:54;100960.91;;;10.82
16759;BMP280;8497;51.346;12.396;2024-03-06T15:21:28;100963.03;;;10.90